Nova — 9HHC8 — position and weather

sailwx.info

Track history (hours):
 
Tides and Currents Weather Stations Pressure Air Temp Water Temp Dewpoint Dewpoint Depression Visibility Wind Speed Wind Dir Waves Ship Positions

Nova

Last reported at 2018-Jul-22 06:48 UTC. Time now 2018-Jul-23 04:08 UTC.
Position N 45°30' E 036°47'.

Length 99 m; draft 3.2 m.

Type: Ship. MMSI: 215976000.

Date/timePositionNaut miles runAvg speedWind from/ knotsBaromVisibWave heightAir tempDewpointWater temp
2018-Jul-22 06:48N 45°30' E 036°47'2 7.2
2018-Jul-22 06:28N 45°28' E 036°46'3 7.4
2018-Jul-22 06:00N 45°25' E 036°42'4 7.5
2018-Jul-22 05:30N 45°22' E 036°40'4 7.7
2018-Jul-22 05:00N 45°20' E 036°36'5 8.2
2018-Jul-22 04:27N 45°18' E 036°30'7 0.4
2018-Jul-21 13:20N 45°11' E 036°30'0 0.0
2018-Jul-21 12:59N 45°11' E 036°30'0 0.0
2018-Jul-21 12:08N 45°11' E 036°30'0 0.0
2018-Jul-21 11:59N 45°11' E 036°30'0 0.0
2018-Jul-21 10:56N 45°11' E 036°30'0 0.1
2018-Jul-21 10:29N 45°11' E 036°30'0 0.0
2018-Jul-21 09:53N 45°11' E 036°30'0 0.1
2018-Jul-21 09:29N 45°11' E 036°30'0 0.0
2018-Jul-21 08:44N 45°11' E 036°30'0 0.0
2018-Jul-21 07:32N 45°11' E 036°30'0 0.1
2018-Jul-21 07:29N 45°11' E 036°30'0 0.0
2018-Jul-21 06:59N 45°11' E 036°30'0 0.0
2018-Jul-21 04:35N 45°11' E 036°30'0 0.1
2018-Jul-21 04:14N 45°11' E 036°30'0 0.1
2018-Jul-21 03:56N 45°11' E 036°30'0 0.0
2018-Jul-21 03:29N 45°11' E 036°30'  
Track history (hours):
 
Tides and Currents Weather Stations Pressure Air Temp Water Temp Dewpoint Dewpoint Depression Visibility Wind Speed Wind Dir Waves Ship Positions

Nova

Last reported at 2018-Jul-22 06:48 UTC. Time now 2018-Jul-23 04:08 UTC.
Position N 45°30' E 036°47'.

Length 99 m; draft 3.2 m.

Type: Ship. MMSI: 215976000.

Date/timePositionNaut miles runAvg speedWind from/ knotsBaromVisibWave heightAir tempDewpointWater temp
2018-Jul-22 06:48N 45°30' E 036°47'2 7.2
2018-Jul-22 06:28N 45°28' E 036°46'3 7.4
2018-Jul-22 06:00N 45°25' E 036°42'4 7.5
2018-Jul-22 05:30N 45°22' E 036°40'4 7.7
2018-Jul-22 05:00N 45°20' E 036°36'5 8.2
2018-Jul-22 04:27N 45°18' E 036°30'7 0.4
2018-Jul-21 13:20N 45°11' E 036°30'0 0.0
2018-Jul-21 12:59N 45°11' E 036°30'0 0.0
2018-Jul-21 12:08N 45°11' E 036°30'0 0.0
2018-Jul-21 11:59N 45°11' E 036°30'0 0.0
2018-Jul-21 10:56N 45°11' E 036°30'0 0.1
2018-Jul-21 10:29N 45°11' E 036°30'0 0.0
2018-Jul-21 09:53N 45°11' E 036°30'0 0.1
2018-Jul-21 09:29N 45°11' E 036°30'0 0.0
2018-Jul-21 08:44N 45°11' E 036°30'0 0.0
2018-Jul-21 07:32N 45°11' E 036°30'0 0.1
2018-Jul-21 07:29N 45°11' E 036°30'0 0.0
2018-Jul-21 06:59N 45°11' E 036°30'0 0.0
2018-Jul-21 04:35N 45°11' E 036°30'0 0.1
2018-Jul-21 04:14N 45°11' E 036°30'0 0.1
2018-Jul-21 03:56N 45°11' E 036°30'0 0.0
2018-Jul-21 03:29N 45°11' E 036°30'  

Dump ship's entire track history